Bookmark and Share
Track history (hours):
 

Bw Havfrost

Last reported at 2014-Mar-05 14:33 UTC. Time now 2014-Apr-24 19:35 UTC.
Position N 26°26' E 056°13'.
Warning: this ship's position is 50 days out of date.

Length 205 m; draft 11.1 m.

Type: Ship (hazmat cat B). MMSI: 257631000.

NotesDate/timePositionNaut miles runAvg speedWind from/ knotsBaromVisibWave heightAir tempDewpointWater temp
2014-Mar-05 14:33N 26°26' E 056°13'8911.1
2014-Mar-05 06:32N 25°33' E 054°53'0 0.0
2014-Mar-04 18:16N 25°33' E 054°53'0 0.0
2014-Mar-04 17:31N 25°33' E 054°53'0 0.0
2014-Mar-04 16:31N 25°33' E 054°53'0 0.0
2014-Mar-04 09:08N 25°33' E 054°53'0 0.1
2014-Mar-04 07:26N 25°33' E 054°53'0 0.0
2014-Mar-03 20:29N 25°33' E 054°53'0 0.1
2014-Mar-03 17:26N 25°33' E 054°53'0 0.0
2014-Mar-03 15:32N 25°33' E 054°53'2 0.7
2014-Mar-03 12:15N 25°31' E 054°54'9 1.1
2014-Mar-03 04:19N 25°26' E 055°02'0 0.0
2014-Mar-03 03:25N 25°26' E 055°02'0 0.0
2014-Mar-03 02:22N 25°26' E 055°02'0 0.0
2014-Mar-03 01:31N 25°26' E 055°02'0 0.0
2014-Mar-02 22:28N 25°26' E 055°02'0 0.0
2014-Mar-02 21:31N 25°26' E 055°02'0 0.0
2014-Mar-02 19:10N 25°26' E 055°02'0 0.0
2014-Mar-02 18:31N 25°26' E 055°02'0 0.0
2014-Mar-02 17:31N 25°26' E 055°02'0 0.0
2014-Mar-02 16:22N 25°26' E 055°02'0 0.0
2014-Mar-02 15:13N 25°26' E 055°02'0 0.0
2014-Mar-02 14:31N 25°26' E 055°02'0 0.1
2014-Mar-02 13:25N 25°27' E 055°02'0 0.1
2014-Mar-02 12:31N 25°26' E 055°02'0 0.0
2014-Mar-02 07:25N 25°26' E 055°02'0 0.0
2014-Mar-02 06:31N 25°26' E 055°02'0 0.0
2014-Mar-02 05:31N 25°26' E 055°02'0 0.0
2014-Mar-02 04:22N 25°26' E 055°02'0 0.0
2014-Mar-02 03:28N 25°26' E 055°02'0 0.0
2014-Mar-02 02:28N 25°26' E 055°02'0 0.0
2014-Mar-02 01:31N 25°26' E 055°02'0 0.0
2014-Mar-02 00:31N 25°26' E 055°02'0 0.0
2014-Mar-01 23:25N 25°26' E 055°02'0 0.1
2014-Mar-01 22:31N 25°26' E 055°02'0 0.0
2014-Mar-01 21:31N 25°26' E 055°02'0 0.0
2014-Mar-01 20:25N 25°26' E 055°02'0 0.0
2014-Mar-01 19:19N 25°26' E 055°02'0 0.1
2014-Mar-01 18:28N 25°26' E 055°02'0 0.0
2014-Mar-01 17:31N 25°26' E 055°02'0 0.0
2014-Mar-01 16:28N 25°27' E 055°02'0 0.0
2014-Mar-01 15:25N 25°27' E 055°02'0 0.0
2014-Mar-01 14:07N 25°27' E 055°02'0 0.0
2014-Mar-01 13:28N 25°27' E 055°02'0 0.0
2014-Mar-01 12:31N 25°27' E 055°02'0 0.1
2014-Mar-01 11:28N 25°27' E 055°02'0 0.0
2014-Mar-01 09:28N 25°27' E 055°02'0 0.2
2014-Mar-01 08:28N 25°27' E 055°02'0 0.2
2014-Mar-01 07:31N 25°26' E 055°02'6 2.7
2014-Mar-01 05:27N 25°21' E 055°02'0 0.0
2014-Mar-01 04:30N 25°21' E 055°02'0 0.0
2014-Feb-28 19:30N 25°21' E 055°02'0 0.0
2014-Feb-28 18:21N 25°21' E 055°02'0 0.1
2014-Feb-28 17:30N 25°21' E 055°02'0 0.1
2014-Feb-28 16:33N 25°21' E 055°02'0 0.0
2014-Feb-28 15:30N 25°21' E 055°02'0 0.0
2014-Feb-28 14:30N 25°21' E 055°02'0 0.0
2014-Feb-28 13:33N 25°21' E 055°02'0 0.0
2014-Feb-28 04:18N 25°21' E 055°02'0 0.0
2014-Feb-28 03:27N 25°21' E 055°02'0 0.0
2014-Feb-28 02:33N 25°21' E 055°02'0 0.1
2014-Feb-28 01:33N 25°21' E 055°02'0 0.0
2014-Feb-28 00:30N 25°21' E 055°02'0 0.0
2014-Feb-27 23:30N 25°21' E 055°02'0 0.0
2014-Feb-27 22:33N 25°21' E 055°02'0 0.0
2014-Feb-27 21:24N 25°21' E 055°02'0 0.0
2014-Feb-27 18:12N 25°21' E 055°02'0 0.1
2014-Feb-27 17:27N 25°21' E 055°02'0 0.1
2014-Feb-27 16:30N 25°21' E 055°02'0 0.1
2014-Feb-27 15:33N 25°21' E 055°02'0 0.0
2014-Feb-27 14:33N 25°21' E 055°02'0 0.0
2014-Feb-27 13:25N 25°21' E 055°02'0 0.1
2014-Feb-27 12:19N 25°21' E 055°02'0 0.0
2014-Feb-27 01:19N 25°21' E 055°02'0 0.0
2014-Feb-27 00:28N 25°21' E 055°02'0 0.0
2014-Feb-26 23:31N 25°21' E 055°02'0 0.0
2014-Feb-26 22:28N 25°21' E 055°02'0 0.0
2014-Feb-26 21:16N 25°21' E 055°02'0 0.0
2014-Feb-26 20:31N 25°21' E 055°02'0 0.0
2014-Feb-26 18:28N 25°21' E 055°02'0 0.0
2014-Feb-26 17:28N 25°21' E 055°02'0 0.1
2014-Feb-26 16:28N 25°21' E 055°02'0 0.1
2014-Feb-26 15:25N 25°21' E 055°02'0 0.0
2014-Feb-26 14:31N 25°21' E 055°02'0 0.0
2014-Feb-26 13:31N 25°21' E 055°02'0 0.0
2014-Feb-26 12:25N 25°21' E 055°02'0 0.0
2014-Feb-26 04:24N 25°21' E 055°02'0 0.0
2014-Feb-26 03:24N 25°21' E 055°02'0 0.1
2014-Feb-25 23:25N 25°21' E 055°01'6 7.2
2014-Feb-25 22:34N 25°27' E 054°59'1914.4
2014-Feb-25 21:12N 25°44' E 055°10'4215.7
2014-Feb-25 18:33N 26°09' E 055°47'  

Dump ship's entire track history

sailing weather and tide predictions

Bw Havfrost — LAMR4 — position and weather